sensor_id;sensor_type;location;lat;lon;timestamp;pressure;altitude;pressure_sealevel;temperature;humidity
71966;BME280;59836;52.132;5.442;2023-02-28T00:00:24;103268.69;;;1.58;82.59
71966;BME280;59836;52.132;5.442;2023-02-28T00:02:50;103264.00;;;1.60;83.17
71966;BME280;59836;52.132;5.442;2023-02-28T00:05:19;103263.84;;;1.61;82.95
71966;BME280;59836;52.132;5.442;2023-02-28T00:07:46;103262.41;;;1.67;82.82
71966;BME280;59836;52.132;5.442;2023-02-28T00:10:15;103269.31;;;1.70;83.14
71966;BME280;59836;52.132;5.442;2023-02-28T00:12:42;103275.88;;;1.75;82.90
71966;BME280;59836;52.132;5.442;2023-02-28T00:15:09;103272.91;;;1.79;82.58
71966;BME280;59836;52.132;5.442;2023-02-28T00:17:37;103270.63;;;1.84;82.86
71966;BME280;59836;52.132;5.442;2023-02-28T00:20:05;103274.00;;;1.86;82.71
71966;BME280;59836;52.132;5.442;2023-02-28T00:22:40;103274.69;;;1.88;83.07
71966;BME280;59836;52.132;5.442;2023-02-28T00:25:08;103271.69;;;1.91;83.01
71966;BME280;59836;52.132;5.442;2023-02-28T00:27:36;103272.41;;;1.93;83.06
71966;BME280;59836;52.132;5.442;2023-02-28T00:30:04;103266.75;;;1.96;83.04
71966;BME280;59836;52.132;5.442;2023-02-28T00:32:31;103269.81;;;2.01;82.75
71966;BME280;59836;52.132;5.442;2023-02-28T00:34:57;103267.50;;;2.06;82.89
71966;BME280;59836;52.132;5.442;2023-02-28T00:37:24;103267.22;;;2.10;83.09
71966;BME280;59836;52.132;5.442;2023-02-28T00:39:50;103273.09;;;2.13;83.21
71966;BME280;59836;52.132;5.442;2023-02-28T00:42:16;103264.91;;;2.15;82.97
71966;BME280;59836;52.132;5.442;2023-02-28T00:44:43;103269.81;;;2.19;82.87
71966;BME280;59836;52.132;5.442;2023-02-28T00:47:09;103269.50;;;2.22;82.57
71966;BME280;59836;52.132;5.442;2023-02-28T00:49:36;103262.00;;;2.26;82.52
71966;BME280;59836;52.132;5.442;2023-02-28T00:52:03;103267.88;;;2.30;82.43
71966;BME280;59836;52.132;5.442;2023-02-28T00:54:29;103268.75;;;2.30;82.66
71966;BME280;59836;52.132;5.442;2023-02-28T00:56:56;103259.41;;;2.34;82.47
71966;BME280;59836;52.132;5.442;2023-02-28T00:59:22;103259.25;;;2.36;82.36
71966;BME280;59836;52.132;5.442;2023-02-28T01:01:48;103266.81;;;2.41;82.43
71966;BME280;59836;52.132;5.442;2023-02-28T01:04:15;103258.47;;;2.44;81.96
71966;BME280;59836;52.132;5.442;2023-02-28T01:06:42;103267.22;;;2.46;82.37
71966;BME280;59836;52.132;5.442;2023-02-28T01:09:10;103262.53;;;2.48;82.22
71966;BME280;59836;52.132;5.442;2023-02-28T01:11:37;103265.91;;;2.50;82.35
71966;BME280;59836;52.132;5.442;2023-02-28T01:14:03;103266.91;;;2.49;82.06
71966;BME280;59836;52.132;5.442;2023-02-28T01:16:30;103270.09;;;2.53;82.33
71966;BME280;59836;52.132;5.442;2023-02-28T01:18:57;103267.28;;;2.54;82.14
71966;BME280;59836;52.132;5.442;2023-02-28T01:21:24;103259.25;;;2.54;82.03
71966;BME280;59836;52.132;5.442;2023-02-28T01:23:50;103265.97;;;2.58;82.09
71966;BME280;59836;52.132;5.442;2023-02-28T01:26:22;103254.56;;;2.56;81.94
71966;BME280;59836;52.132;5.442;2023-02-28T01:28:50;103251.03;;;2.56;81.83
71966;BME280;59836;52.132;5.442;2023-02-28T01:31:18;103257.25;;;2.56;81.86
71966;BME280;59836;52.132;5.442;2023-02-28T01:33:45;103255.25;;;2.58;81.80
71966;BME280;59836;52.132;5.442;2023-02-28T01:36:15;103255.09;;;2.60;81.67
71966;BME280;59836;52.132;5.442;2023-02-28T01:38:42;103251.28;;;2.62;81.67
71966;BME280;59836;52.132;5.442;2023-02-28T01:41:14;103254.94;;;2.61;81.54
71966;BME280;59836;52.132;5.442;2023-02-28T01:46:12;103254.28;;;2.68;81.70
71966;BME280;59836;52.132;5.442;2023-02-28T01:48:45;103247.25;;;2.66;81.67
71966;BME280;59836;52.132;5.442;2023-02-28T01:51:17;103247.09;;;2.68;81.81
71966;BME280;59836;52.132;5.442;2023-02-28T01:53:51;103243.56;;;2.68;81.75
71966;BME280;59836;52.132;5.442;2023-02-28T01:56:24;103243.56;;;2.68;81.87
71966;BME280;59836;52.132;5.442;2023-02-28T01:58:54;103240.88;;;2.68;81.84
71966;BME280;59836;52.132;5.442;2023-02-28T02:01:22;103232.03;;;2.67;81.86
71966;BME280;59836;52.132;5.442;2023-02-28T02:03:51;103227.50;;;2.68;81.83
71966;BME280;59836;52.132;5.442;2023-02-28T02:06:30;103232.72;;;2.69;81.89
71966;BME280;59836;52.132;5.442;2023-02-28T02:08:57;103229.19;;;2.69;82.03
71966;BME280;59836;52.132;5.442;2023-02-28T02:11:24;103226.50;;;2.69;82.06
71966;BME280;59836;52.132;5.442;2023-02-28T02:17:08;103232.41;;;2.72;82.00
71966;BME280;59836;52.132;5.442;2023-02-28T02:25:48;103228.53;;;2.75;81.72
71966;BME280;59836;52.132;5.442;2023-02-28T02:31:29;103227.72;;;2.74;81.88
71966;BME280;59836;52.132;5.442;2023-02-28T02:36:42;103235.28;;;2.79;81.65
71966;BME280;59836;52.132;5.442;2023-02-28T02:42:01;103228.59;;;2.83;81.65
71966;BME280;59836;52.132;5.442;2023-02-28T02:44:33;103230.28;;;2.84;81.87
71966;BME280;59836;52.132;5.442;2023-02-28T02:47:10;103230.97;;;2.86;81.99
71966;BME280;59836;52.132;5.442;2023-02-28T02:49:39;103229.81;;;2.89;81.88
71966;BME280;59836;52.132;5.442;2023-02-28T02:52:10;103236.88;;;2.90;81.96
71966;BME280;59836;52.132;5.442;2023-02-28T02:54:42;103226.16;;;2.90;81.62
71966;BME280;59836;52.132;5.442;2023-02-28T02:57:14;103223.28;;;2.91;82.16
71966;BME280;59836;52.132;5.442;2023-02-28T02:59:42;103230.50;;;2.91;82.24
71966;BME280;59836;52.132;5.442;2023-02-28T03:02:12;103233.31;;;2.89;82.34
71966;BME280;59836;52.132;5.442;2023-02-28T03:04:43;103225.28;;;2.89;82.37
71966;BME280;59836;52.132;5.442;2023-02-28T03:07:11;103226.97;;;2.90;82.69
71966;BME280;59836;52.132;5.442;2023-02-28T03:09:37;103237.69;;;2.90;82.83
71966;BME280;59836;52.132;5.442;2023-02-28T03:12:08;103236.88;;;2.90;82.58
71966;BME280;59836;52.132;5.442;2023-02-28T03:17:35;103233.19;;;2.91;83.19
71966;BME280;59836;52.132;5.442;2023-02-28T03:20:35;103225.97;;;2.91;82.95
71966;BME280;59836;52.132;5.442;2023-02-28T03:25:39;103226.34;;;2.97;83.15
71966;BME280;59836;52.132;5.442;2023-02-28T03:31:15;103240.75;;;2.95;82.80
71966;BME280;59836;52.132;5.442;2023-02-28T03:33:50;103227.34;;;2.95;83.29
71966;BME280;59836;52.132;5.442;2023-02-28T03:36:30;103231.50;;;2.90;83.03
71966;BME280;59836;52.132;5.442;2023-02-28T03:39:02;103239.38;;;2.91;83.36
71966;BME280;59836;52.132;5.442;2023-02-28T03:41:33;103248.41;;;2.90;83.53
71966;BME280;59836;52.132;5.442;2023-02-28T03:44:15;103244.72;;;2.91;83.50
71966;BME280;59836;52.132;5.442;2023-02-28T03:46:51;103243.06;;;2.90;83.61
71966;BME280;59836;52.132;5.442;2023-02-28T03:49:23;103239.69;;;2.88;83.38
71966;BME280;59836;52.132;5.442;2023-02-28T03:51:52;103252.41;;;2.86;83.53
71966;BME280;59836;52.132;5.442;2023-02-28T03:54:27;103255.09;;;2.86;83.68
71966;BME280;59836;52.132;5.442;2023-02-28T03:57:13;103256.09;;;2.85;83.38
71966;BME280;59836;52.132;5.442;2023-02-28T03:59:49;103255.09;;;2.86;83.50
71966;BME280;59836;52.132;5.442;2023-02-28T04:02:20;103254.09;;;2.87;83.01
71966;BME280;59836;52.132;5.442;2023-02-28T04:04:49;103250.59;;;2.87;82.90
71966;BME280;59836;52.132;5.442;2023-02-28T04:07:16;103244.53;;;2.85;82.54
71966;BME280;59836;52.132;5.442;2023-02-28T04:09:43;103242.84;;;2.84;82.86
71966;BME280;59836;52.132;5.442;2023-02-28T04:12:10;103250.72;;;2.85;81.65
71966;BME280;59836;52.132;5.442;2023-02-28T04:14:36;103252.03;;;2.81;81.29
71966;BME280;59836;52.132;5.442;2023-02-28T04:17:03;103256.41;;;2.82;80.00
71966;BME280;59836;52.132;5.442;2023-02-28T04:19:29;103248.53;;;2.80;79.61
71966;BME280;59836;52.132;5.442;2023-02-28T04:21:56;103253.03;;;2.80;77.91
71966;BME280;59836;52.132;5.442;2023-02-28T04:24:24;103250.97;;;2.74;77.26
71966;BME280;59836;52.132;5.442;2023-02-28T04:26:53;103258.03;;;2.75;76.78
71966;BME280;59836;52.132;5.442;2023-02-28T04:29:23;103254.97;;;2.70;76.69
71966;BME280;59836;52.132;5.442;2023-02-28T04:31:50;103265.00;;;2.68;76.10
71966;BME280;59836;52.132;5.442;2023-02-28T04:34:16;103262.31;;;2.68;75.99
71966;BME280;59836;52.132;5.442;2023-02-28T04:36:45;103261.50;;;2.67;75.98
71966;BME280;59836;52.132;5.442;2023-02-28T04:39:12;103258.31;;;2.63;75.22
71966;BME280;59836;52.132;5.442;2023-02-28T04:41:38;103260.31;;;2.61;75.11
71966;BME280;59836;52.132;5.442;2023-02-28T04:44:04;103271.03;;;2.61;75.38
71966;BME280;59836;52.132;5.442;2023-02-28T04:46:31;103279.38;;;2.58;75.47
71966;BME280;59836;52.132;5.442;2023-02-28T04:48:57;103268.78;;;2.57;75.73
71966;BME280;59836;52.132;5.442;2023-02-28T04:51:25;103261.75;;;2.56;75.45
71966;BME280;59836;52.132;5.442;2023-02-28T04:53:52;103261.22;;;2.52;75.63
71966;BME280;59836;52.132;5.442;2023-02-28T04:56:18;103270.09;;;2.53;75.32
71966;BME280;59836;52.132;5.442;2023-02-28T04:58:45;103270.72;;;2.46;75.38
71966;BME280;59836;52.132;5.442;2023-02-28T05:01:26;103269.81;;;2.38;75.67
71966;BME280;59836;52.132;5.442;2023-02-28T05:03:55;103269.56;;;2.31;76.13
71966;BME280;59836;52.132;5.442;2023-02-28T05:06:24;103270.44;;;2.31;76.88
71966;BME280;59836;52.132;5.442;2023-02-28T05:08:51;103262.00;;;2.26;77.71
71966;BME280;59836;52.132;5.442;2023-02-28T05:11:23;103261.31;;;2.24;77.59
71966;BME280;59836;52.132;5.442;2023-02-28T05:13:50;103258.94;;;2.21;77.90
71966;BME280;59836;52.132;5.442;2023-02-28T05:16:18;103264.91;;;2.15;79.07
71966;BME280;59836;52.132;5.442;2023-02-28T05:18:45;103263.25;;;2.14;78.94
71966;BME280;59836;52.132;5.442;2023-02-28T05:21:32;103267.91;;;2.12;79.14
71966;BME280;59836;52.132;5.442;2023-02-28T05:24:00;103272.56;;;2.10;79.60
71966;BME280;59836;52.132;5.442;2023-02-28T05:26:27;103277.91;;;2.10;79.47
71966;BME280;59836;52.132;5.442;2023-02-28T05:28:54;103272.34;;;2.03;79.64
71966;BME280;59836;52.132;5.442;2023-02-28T05:31:21;103274.34;;;2.01;79.98
71966;BME280;59836;52.132;5.442;2023-02-28T05:33:48;103271.78;;;1.99;80.25
71966;BME280;59836;52.132;5.442;2023-02-28T05:36:14;103274.75;;;1.96;80.58
71966;BME280;59836;52.132;5.442;2023-02-28T05:38:41;103269.59;;;1.95;81.39
71966;BME280;59836;52.132;5.442;2023-02-28T05:41:08;103269.13;;;1.99;81.56
71966;BME280;59836;52.132;5.442;2023-02-28T05:43:36;103270.09;;;1.98;81.55
71966;BME280;59836;52.132;5.442;2023-02-28T05:46:04;103266.75;;;1.96;81.35
71966;BME280;59836;52.132;5.442;2023-02-28T05:48:33;103281.28;;;1.94;82.04
71966;BME280;59836;52.132;5.442;2023-02-28T05:51:00;103272.69;;;1.90;82.05
71966;BME280;59836;52.132;5.442;2023-02-28T05:53:27;103278.34;;;1.87;82.94
71966;BME280;59836;52.132;5.442;2023-02-28T05:55:53;103279.81;;;1.81;82.78
71966;BME280;59836;52.132;5.442;2023-02-28T05:58:19;103272.59;;;1.82;83.05
71966;BME280;59836;52.132;5.442;2023-02-28T06:00:47;103280.63;;;1.82;83.14
71966;BME280;59836;52.132;5.442;2023-02-28T06:03:13;103277.84;;;1.73;83.33
71966;BME280;59836;52.132;5.442;2023-02-28T06:05:40;103273.19;;;1.75;83.74
71966;BME280;59836;52.132;5.442;2023-02-28T06:08:06;103276.56;;;1.77;84.12
71966;BME280;59836;52.132;5.442;2023-02-28T06:10:34;103277.56;;;1.76;84.34
71966;BME280;59836;52.132;5.442;2023-02-28T06:13:02;103282.91;;;1.76;84.24
71966;BME280;59836;52.132;5.442;2023-02-28T06:15:29;103272.22;;;1.76;84.73
71966;BME280;59836;52.132;5.442;2023-02-28T06:17:56;103274.75;;;1.78;84.65
71966;BME280;59836;52.132;5.442;2023-02-28T06:20:24;103268.53;;;1.77;84.60
71966;BME280;59836;52.132;5.442;2023-02-28T06:22:50;103269.22;;;1.80;85.07
71966;BME280;59836;52.132;5.442;2023-02-28T06:25:17;103262.91;;;1.81;85.38
71966;BME280;59836;52.132;5.442;2023-02-28T06:27:44;103263.88;;;1.80;85.35
71966;BME280;59836;52.132;5.442;2023-02-28T06:30:11;103263.75;;;1.81;85.43
71966;BME280;59836;52.132;5.442;2023-02-28T06:32:37;103273.59;;;1.81;85.33
71966;BME280;59836;52.132;5.442;2023-02-28T06:35:04;103267.25;;;1.82;85.71
71966;BME280;59836;52.132;5.442;2023-02-28T06:37:31;103256.56;;;1.82;85.75
71966;BME280;59836;52.132;5.442;2023-02-28T06:39:58;103270.78;;;1.82;85.78
71966;BME280;59836;52.132;5.442;2023-02-28T06:42:25;103258.22;;;1.83;85.98
71966;BME280;59836;52.132;5.442;2023-02-28T06:44:55;103265.28;;;1.84;86.16
71966;BME280;59836;52.132;5.442;2023-02-28T06:47:22;103261.47;;;1.86;86.20
71966;BME280;59836;52.132;5.442;2023-02-28T06:49:48;103260.31;;;1.89;86.39
71966;BME280;59836;52.132;5.442;2023-02-28T06:52:15;103263.84;;;1.89;86.35
71966;BME280;59836;52.132;5.442;2023-02-28T06:54:42;103278.03;;;1.90;86.20
71966;BME280;59836;52.132;5.442;2023-02-28T06:57:08;103277.34;;;1.88;85.94
71966;BME280;59836;52.132;5.442;2023-02-28T06:59:35;103281.72;;;1.89;86.34
71966;BME280;59836;52.132;5.442;2023-02-28T07:02:02;103274.38;;;1.91;86.42
71966;BME280;59836;52.132;5.442;2023-02-28T07:04:29;103293.81;;;1.93;86.12
71966;BME280;59836;52.132;5.442;2023-02-28T07:06:55;103281.13;;;1.95;86.18
71966;BME280;59836;52.132;5.442;2023-02-28T07:09:23;103283.78;;;1.95;86.30
71966;BME280;59836;52.132;5.442;2023-02-28T07:11:49;103290.69;;;1.98;85.98
71966;BME280;59836;52.132;5.442;2023-02-28T07:14:16;103288.84;;;1.98;86.06
71966;BME280;59836;52.132;5.442;2023-02-28T07:16:42;103285.16;;;1.99;86.31
71966;BME280;59836;52.132;5.442;2023-02-28T07:19:10;103281.38;;;2.02;86.29
71966;BME280;59836;52.132;5.442;2023-02-28T07:21:37;103287.53;;;2.02;86.32
71966;BME280;59836;52.132;5.442;2023-02-28T07:24:03;103288.41;;;2.03;86.21
71966;BME280;59836;52.132;5.442;2023-02-28T07:26:30;103297.13;;;2.05;86.05
71966;BME280;59836;52.132;5.442;2023-02-28T07:28:56;103298.63;;;2.08;86.08
71966;BME280;59836;52.132;5.442;2023-02-28T07:31:22;103302.19;;;2.08;86.16
71966;BME280;59836;52.132;5.442;2023-02-28T07:33:49;103284.94;;;2.11;86.27
71966;BME280;59836;52.132;5.442;2023-02-28T07:36:16;103292.00;;;2.12;86.18
71966;BME280;59836;52.132;5.442;2023-02-28T07:38:46;103290.31;;;2.11;85.91
71966;BME280;59836;52.132;5.442;2023-02-28T07:41:15;103294.66;;;2.12;86.37
71966;BME280;59836;52.132;5.442;2023-02-28T07:43:42;103296.34;;;2.13;86.07
71966;BME280;59836;52.132;5.442;2023-02-28T07:46:13;103306.06;;;2.14;85.95
71966;BME280;59836;52.132;5.442;2023-02-28T07:48:44;103312.25;;;2.14;86.02
71966;BME280;59836;52.132;5.442;2023-02-28T07:51:11;103308.06;;;2.12;86.05
71966;BME280;59836;52.132;5.442;2023-02-28T07:53:37;103310.56;;;2.13;86.21
71966;BME280;59836;52.132;5.442;2023-02-28T07:56:04;103300.72;;;2.14;86.01
71966;BME280;59836;52.132;5.442;2023-02-28T07:58:31;103302.09;;;2.18;86.35
71966;BME280;59836;52.132;5.442;2023-02-28T08:01:04;103301.78;;;2.21;85.87
71966;BME280;59836;52.132;5.442;2023-02-28T08:03:31;103308.53;;;2.25;86.22
71966;BME280;59836;52.132;5.442;2023-02-28T08:05:58;103311.03;;;2.27;86.36
71966;BME280;59836;52.132;5.442;2023-02-28T08:08:24;103320.31;;;2.32;86.41
71966;BME280;59836;52.132;5.442;2023-02-28T08:10:59;103329.34;;;2.31;86.14
71966;BME280;59836;52.132;5.442;2023-02-28T08:13:26;103327.50;;;2.32;86.03
71966;BME280;59836;52.132;5.442;2023-02-28T08:15:54;103325.38;;;2.35;85.80
71966;BME280;59836;52.132;5.442;2023-02-28T08:18:24;103327.88;;;2.37;85.63
71966;BME280;59836;52.132;5.442;2023-02-28T08:20:50;103328.56;;;2.39;85.85
71966;BME280;59836;52.132;5.442;2023-02-28T08:23:17;103338.44;;;2.39;85.22
71966;BME280;59836;52.132;5.442;2023-02-28T08:25:44;103321.69;;;2.36;85.25
71966;BME280;59836;52.132;5.442;2023-02-28T08:28:10;103323.69;;;2.34;85.01
71966;BME280;59836;52.132;5.442;2023-02-28T08:30:37;103330.25;;;2.40;85.00
71966;BME280;59836;52.132;5.442;2023-02-28T08:33:03;103328.81;;;2.46;85.04
71966;BME280;59836;52.132;5.442;2023-02-28T08:35:30;103318.78;;;2.48;84.65
71966;BME280;59836;52.132;5.442;2023-02-28T08:37:56;103320.16;;;2.52;84.61
71966;BME280;59836;52.132;5.442;2023-02-28T08:40:23;103326.91;;;2.56;84.11
71966;BME280;59836;52.132;5.442;2023-02-28T08:42:50;103320.91;;;2.62;83.23
71966;BME280;59836;52.132;5.442;2023-02-28T08:45:17;103327.63;;;2.66;82.34
71966;BME280;59836;52.132;5.442;2023-02-28T08:47:43;103318.44;;;2.69;81.87
71966;BME280;59836;52.132;5.442;2023-02-28T08:50:10;103317.97;;;2.74;81.23
71966;BME280;59836;52.132;5.442;2023-02-28T08:52:36;103306.81;;;2.78;80.52
71966;BME280;59836;52.132;5.442;2023-02-28T08:55:04;103319.72;;;2.83;79.96
71966;BME280;59836;52.132;5.442;2023-02-28T08:57:31;103318.41;;;2.87;79.00
71966;BME280;59836;52.132;5.442;2023-02-28T08:59:58;103321.63;;;2.91;78.68
71966;BME280;59836;52.132;5.442;2023-02-28T09:02:25;103318.47;;;2.95;77.68
71966;BME280;59836;52.132;5.442;2023-02-28T09:04:51;103313.81;;;2.98;75.82
71966;BME280;59836;52.132;5.442;2023-02-28T09:07:18;103317.72;;;3.03;75.21
71966;BME280;59836;52.132;5.442;2023-02-28T09:09:44;103312.91;;;3.15;74.42
71966;BME280;59836;52.132;5.442;2023-02-28T09:12:24;103309.38;;;3.41;73.40
71966;BME280;59836;52.132;5.442;2023-02-28T09:14:51;103308.81;;;3.64;71.69
71966;BME280;59836;52.132;5.442;2023-02-28T09:17:19;103314.59;;;3.94;70.83
71966;BME280;59836;52.132;5.442;2023-02-28T09:19:47;103308.44;;;4.10;67.84
71966;BME280;59836;52.132;5.442;2023-02-28T09:22:14;103309.28;;;4.19;67.13
71966;BME280;59836;52.132;5.442;2023-02-28T09:24:40;103307.59;;;4.18;65.70
71966;BME280;59836;52.132;5.442;2023-02-28T09:27:07;103304.25;;;4.24;65.69
71966;BME280;59836;52.132;5.442;2023-02-28T09:29:34;103307.09;;;4.31;64.32
71966;BME280;59836;52.132;5.442;2023-02-28T09:32:01;103313.69;;;4.36;61.85
71966;BME280;59836;52.132;5.442;2023-02-28T09:34:31;103309.81;;;4.47;62.51
71966;BME280;59836;52.132;5.442;2023-02-28T09:36:57;103314.03;;;4.66;60.35
71966;BME280;59836;52.132;5.442;2023-02-28T09:39:24;103313.03;;;4.67;60.26
71966;BME280;59836;52.132;5.442;2023-02-28T09:41:54;103312.66;;;4.79;59.47
71966;BME280;59836;52.132;5.442;2023-02-28T09:44:32;103310.63;;;4.81;59.49
71966;BME280;59836;52.132;5.442;2023-02-28T09:47:49;103317.88;;;4.72;58.32
71966;BME280;59836;52.132;5.442;2023-02-28T09:49:50;103323.78;;;4.67;58.58
71966;BME280;59836;52.132;5.442;2023-02-28T09:52:19;103324.09;;;4.64;56.90
71966;BME280;59836;52.132;5.442;2023-02-28T09:54:46;103319.91;;;4.62;56.72
71966;BME280;59836;52.132;5.442;2023-02-28T09:57:19;103325.44;;;4.60;55.96
71966;BME280;59836;52.132;5.442;2023-02-28T10:00:02;103320.06;;;4.60;57.25
71966;BME280;59836;52.132;5.442;2023-02-28T10:08:07;103314.69;;;4.77;57.03
71966;BME280;59836;52.132;5.442;2023-02-28T10:11:12;103312.31;;;4.82;56.23
71966;BME280;59836;52.132;5.442;2023-02-28T10:14:00;103310.63;;;4.89;55.45
71966;BME280;59836;52.132;5.442;2023-02-28T10:16:38;103309.78;;;5.05;55.17
71966;BME280;59836;52.132;5.442;2023-02-28T10:19:20;103302.84;;;5.19;55.07
71966;BME280;59836;52.132;5.442;2023-02-28T10:21:57;103304.13;;;5.40;54.04
71966;BME280;59836;52.132;5.442;2023-02-28T10:24:33;103293.34;;;5.48;53.15
71966;BME280;59836;52.132;5.442;2023-02-28T10:27:13;103294.00;;;5.50;51.89
71966;BME280;59836;52.132;5.442;2023-02-28T10:29:43;103292.78;;;5.61;51.08
71966;BME280;59836;52.132;5.442;2023-02-28T10:32:17;103302.00;;;5.67;50.96
71966;BME280;59836;52.132;5.442;2023-02-28T10:34:47;103285.31;;;5.71;50.25
71966;BME280;59836;52.132;5.442;2023-02-28T10:37:18;103292.22;;;5.74;50.11
71966;BME280;59836;52.132;5.442;2023-02-28T10:39:46;103298.88;;;5.86;51.22
71966;BME280;59836;52.132;5.442;2023-02-28T10:42:25;103298.50;;;5.89;50.65
71966;BME280;59836;52.132;5.442;2023-02-28T10:45:14;103301.34;;;5.96;50.22
71966;BME280;59836;52.132;5.442;2023-02-28T10:48:05;103292.06;;;5.99;50.14
71966;BME280;59836;52.132;5.442;2023-02-28T10:50:51;103289.69;;;6.04;49.73
71966;BME280;59836;52.132;5.442;2023-02-28T10:58:58;103285.53;;;6.25;49.59
71966;BME280;59836;52.132;5.442;2023-02-28T11:07:01;103268.88;;;6.44;48.45
71966;BME280;59836;52.132;5.442;2023-02-28T11:09:36;103278.94;;;6.50;48.79
71966;BME280;59836;52.132;5.442;2023-02-28T11:12:22;103267.78;;;6.54;47.92
71966;BME280;59836;52.132;5.442;2023-02-28T11:14:58;103260.34;;;6.56;47.58
71966;BME280;59836;52.132;5.442;2023-02-28T11:17:28;103259.53;;;6.70;47.87
71966;BME280;59836;52.132;5.442;2023-02-28T11:19:58;103265.97;;;6.69;48.04
71966;BME280;59836;52.132;5.442;2023-02-28T11:22:32;103256.19;;;6.68;47.49
71966;BME280;59836;52.132;5.442;2023-02-28T11:25:13;103261.88;;;6.73;46.64
71966;BME280;59836;52.132;5.442;2023-02-28T11:27:46;103257.06;;;6.84;47.70
71966;BME280;59836;52.132;5.442;2023-02-28T11:30:30;103245.13;;;6.93;47.64
71966;BME280;59836;52.132;5.442;2023-02-28T11:32:57;103250.81;;;6.98;46.83
71966;BME280;59836;52.132;5.442;2023-02-28T11:35:33;103245.63;;;6.97;46.68
71966;BME280;59836;52.132;5.442;2023-02-28T11:38:07;103251.84;;;6.97;45.17
71966;BME280;59836;52.132;5.442;2023-02-28T11:40:59;103244.75;;;6.96;46.83
71966;BME280;59836;52.132;5.442;2023-02-28T11:43:46;103240.66;;;7.00;46.54
71966;BME280;59836;52.132;5.442;2023-02-28T11:49:06;103244.38;;;6.99;45.25
71966;BME280;59836;52.132;5.442;2023-02-28T11:51:53;103241.78;;;6.91;45.89
71966;BME280;59836;52.132;5.442;2023-02-28T11:54:27;103239.84;;;6.85;45.61
71966;BME280;59836;52.132;5.442;2023-02-28T11:57:00;103237.53;;;6.82;46.11
71966;BME280;59836;52.132;5.442;2023-02-28T12:00:06;103233.06;;;6.89;46.99
71966;BME280;59836;52.132;5.442;2023-02-28T12:05:38;103226.53;;;7.13;46.39
71966;BME280;59836;52.132;5.442;2023-02-28T12:08:35;103225.22;;;7.24;46.68
71966;BME280;59836;52.132;5.442;2023-02-28T12:11:15;103227.38;;;7.29;45.38
71966;BME280;59836;52.132;5.442;2023-02-28T12:16:38;103211.72;;;7.39;44.80
71966;BME280;59836;52.132;5.442;2023-02-28T12:20:06;103211.19;;;7.50;45.64
71966;BME280;59836;52.132;5.442;2023-02-28T12:25:49;103217.72;;;7.56;44.33
71966;BME280;59836;52.132;5.442;2023-02-28T12:28:24;103217.34;;;7.59;44.49
71966;BME280;59836;52.132;5.442;2023-02-28T12:30:59;103217.94;;;7.76;43.56
71966;BME280;59836;52.132;5.442;2023-02-28T12:33:33;103195.00;;;7.87;43.38
71966;BME280;59836;52.132;5.442;2023-02-28T12:36:05;103208.22;;;8.04;43.33
71966;BME280;59836;52.132;5.442;2023-02-28T12:38:45;103208.34;;;7.95;44.08
71966;BME280;59836;52.132;5.442;2023-02-28T12:43:48;103212.53;;;7.76;43.28
71966;BME280;59836;52.132;5.442;2023-02-28T12:46:21;103205.78;;;7.65;43.23
71966;BME280;59836;52.132;5.442;2023-02-28T12:48:53;103205.94;;;7.64;42.79
71966;BME280;59836;52.132;5.442;2023-02-28T12:51:24;103200.66;;;7.56;43.47
71966;BME280;59836;52.132;5.442;2023-02-28T12:54:12;103193.16;;;7.51;43.61
71966;BME280;59836;52.132;5.442;2023-02-28T12:59:20;103185.53;;;7.39;44.08
71966;BME280;59836;52.132;5.442;2023-02-28T13:10:47;103182.31;;;7.29;43.67
71966;BME280;59836;52.132;5.442;2023-02-28T13:13:23;103177.38;;;7.18;43.20
71966;BME280;59836;52.132;5.442;2023-02-28T13:21:00;103179.44;;;7.16;43.11
71966;BME280;59836;52.132;5.442;2023-02-28T13:23:56;103166.25;;;7.06;43.30
71966;BME280;59836;52.132;5.442;2023-02-28T13:28:59;103169.13;;;7.04;43.95
71966;BME280;59836;52.132;5.442;2023-02-28T13:31:26;103173.50;;;7.05;43.52
71966;BME280;59836;52.132;5.442;2023-02-28T13:38:55;103157.94;;;7.07;43.43
71966;BME280;59836;52.132;5.442;2023-02-28T13:51:54;103155.03;;;7.24;42.92
71966;BME280;59836;52.132;5.442;2023-02-28T14:00:32;103144.16;;;7.54;42.34
71966;BME280;59836;52.132;5.442;2023-02-28T14:06:29;103139.47;;;7.63;43.07
71966;BME280;59836;52.132;5.442;2023-02-28T14:11:41;103131.94;;;7.80;42.43
71966;BME280;59836;52.132;5.442;2023-02-28T14:17:08;103133.38;;;8.04;42.21
71966;BME280;59836;52.132;5.442;2023-02-28T14:19:40;103136.72;;;8.06;42.24
71966;BME280;59836;52.132;5.442;2023-02-28T14:22:26;103133.69;;;8.16;42.32
71966;BME280;59836;52.132;5.442;2023-02-28T14:30:59;103125.91;;;8.35;42.20
71966;BME280;59836;52.132;5.442;2023-02-28T14:33:41;103124.47;;;8.39;42.00
71966;BME280;59836;52.132;5.442;2023-02-28T14:36:24;103125.28;;;8.33;41.73
71966;BME280;59836;52.132;5.442;2023-02-28T14:38:55;103117.47;;;8.16;40.36
71966;BME280;59836;52.132;5.442;2023-02-28T14:41:31;103125.53;;;8.09;41.07
71966;BME280;59836;52.132;5.442;2023-02-28T14:44:02;103123.22;;;8.06;41.11
71966;BME280;59836;52.132;5.442;2023-02-28T14:46:37;103125.38;;;7.89;41.63
71966;BME280;59836;52.132;5.442;2023-02-28T14:49:06;103115.50;;;7.75;41.70
71966;BME280;59836;52.132;5.442;2023-02-28T14:51:36;103112.53;;;7.70;41.88
71966;BME280;59836;52.132;5.442;2023-02-28T14:54:03;103115.22;;;7.70;42.64
71966;BME280;59836;52.132;5.442;2023-02-28T14:56:35;103115.22;;;7.70;42.14
71966;BME280;59836;52.132;5.442;2023-02-28T14:59:03;103120.00;;;7.67;42.46
71966;BME280;59836;52.132;5.442;2023-02-28T15:01:31;103122.63;;;7.61;42.36
71966;BME280;59836;52.132;5.442;2023-02-28T15:04:05;103117.34;;;7.52;42.10
71966;BME280;59836;52.132;5.442;2023-02-28T15:06:32;103110.84;;;7.47;42.27
71966;BME280;59836;52.132;5.442;2023-02-28T15:09:13;103117.41;;;7.37;42.45
71966;BME280;59836;52.132;5.442;2023-02-28T15:11:40;103114.06;;;7.35;43.96
71966;BME280;59836;52.132;5.442;2023-02-28T15:14:14;103121.13;;;7.36;43.05